createdAt,value
2023-03-04T00:00:22.734Z,13.43
2023-03-04T00:02:50.612Z,16.83
2023-03-04T00:05:18.516Z,15.30
2023-03-04T00:07:46.336Z,13.63
2023-03-04T00:10:14.270Z,13.73
2023-03-04T00:12:42.167Z,14.17
2023-03-04T00:15:12.086Z,14.00
2023-03-04T00:17:39.901Z,14.23
2023-03-04T00:20:09.346Z,14.93
2023-03-04T00:22:37.167Z,15.63
2023-03-04T00:25:05.663Z,15.03
2023-03-04T00:27:33.559Z,15.20
2023-03-04T00:30:01.374Z,16.97
2023-03-04T00:32:30.670Z,17.87
2023-03-04T00:34:58.590Z,16.87
2023-03-04T00:37:26.673Z,16.03
2023-03-04T00:39:54.501Z,18.13
2023-03-04T00:42:22.384Z,16.30
2023-03-04T00:44:53.583Z,15.60
2023-03-04T00:47:21.568Z,16.10
2023-03-04T00:49:51.096Z,15.73
2023-03-04T00:52:18.962Z,14.73
2023-03-04T00:54:46.834Z,16.27
2023-03-04T00:57:14.682Z,15.77
2023-03-04T00:59:43.850Z,16.20
2023-03-04T01:02:12.252Z,15.37
2023-03-04T01:04:41.829Z,16.10
2023-03-04T01:07:11.284Z,16.60
2023-03-04T01:09:39.262Z,16.43
2023-03-04T01:12:07.666Z,15.60
2023-03-04T01:14:35.909Z,15.90
2023-03-04T01:17:04.150Z,16.43
2023-03-04T01:19:32.022Z,16.27
2023-03-04T01:21:59.878Z,16.60
2023-03-04T01:24:30.024Z,15.63
2023-03-04T01:26:57.898Z,17.10
2023-03-04T01:29:25.756Z,17.57
2023-03-04T01:31:53.763Z,16.67
2023-03-04T01:34:21.649Z,16.93
2023-03-04T01:36:49.813Z,17.23
2023-03-04T01:39:17.669Z,16.87
2023-03-04T01:41:47.004Z,16.97
2023-03-04T01:44:15.276Z,16.67
2023-03-04T01:46:48.449Z,18.73
2023-03-04T01:49:17.178Z,17.27
2023-03-04T01:51:47.528Z,18.00
2023-03-04T01:54:15.445Z,17.53
2023-03-04T01:56:48.252Z,18.53
2023-03-04T01:59:18.415Z,16.90
2023-03-04T02:01:48.184Z,17.90
2023-03-04T02:04:17.957Z,17.03
2023-03-04T02:06:47.699Z,17.77
2023-03-04T02:09:16.447Z,18.03
2023-03-04T02:11:45.364Z,17.23
2023-03-04T02:14:16.131Z,20.13
2023-03-04T02:16:44.549Z,17.70
2023-03-04T02:19:20.954Z,17.53
2023-03-04T02:21:48.869Z,18.10
2023-03-04T02:24:21.996Z,17.60
2023-03-04T02:26:51.350Z,18.07
2023-03-04T02:29:19.642Z,16.33
2023-03-04T02:31:49.406Z,16.93
2023-03-04T02:34:18.863Z,16.70
2023-03-04T02:36:48.534Z,17.03
2023-03-04T02:39:24.512Z,16.97
2023-03-04T02:41:55.700Z,16.03
2023-03-04T02:44:26.042Z,17.03
2023-03-04T02:46:54.753Z,17.10
2023-03-04T02:49:24.227Z,16.93
2023-03-04T02:51:54.129Z,15.90
2023-03-04T02:54:24.663Z,15.87
2023-03-04T02:56:55.661Z,16.50
2023-03-04T02:59:24.360Z,15.77
2023-03-04T03:01:52.470Z,16.53
2023-03-04T03:04:22.619Z,15.40
2023-03-04T03:06:50.997Z,16.03
2023-03-04T03:09:19.128Z,16.57
2023-03-04T03:11:47.227Z,15.67
2023-03-04T03:14:16.579Z,15.53
2023-03-04T03:16:44.392Z,15.20
2023-03-04T03:19:12.313Z,15.20
2023-03-04T03:21:40.313Z,15.60
2023-03-04T03:24:08.656Z,16.47
2023-03-04T03:26:36.655Z,14.63
2023-03-04T03:29:04.494Z,14.87
2023-03-04T03:31:33.779Z,17.27
2023-03-04T03:34:01.690Z,17.83
2023-03-04T03:36:29.842Z,16.73
2023-03-04T03:38:57.715Z,17.80
2023-03-04T03:41:25.552Z,17.27
2023-03-04T03:43:53.444Z,17.63
2023-03-04T03:46:21.289Z,17.03
2023-03-04T03:48:50.520Z,16.93
2023-03-04T03:51:18.323Z,17.30
2023-03-04T03:53:46.138Z,16.27
2023-03-04T03:56:13.965Z,17.30
2023-03-04T03:58:41.841Z,16.73
2023-03-04T04:01:09.886Z,16.43
2023-03-04T04:03:37.823Z,17.13
2023-03-04T04:06:07.694Z,17.30
2023-03-04T04:08:35.593Z,17.03
2023-03-04T04:11:03.540Z,15.53
2023-03-04T04:13:31.438Z,16.33
2023-03-04T04:15:59.594Z,15.97
2023-03-04T04:18:27.883Z,17.07
2023-03-04T04:20:55.892Z,17.57
2023-03-04T04:23:25.134Z,16.20
2023-03-04T04:25:52.981Z,19.37
2023-03-04T04:28:20.823Z,18.60
2023-03-04T04:30:48.992Z,19.10
2023-03-04T04:33:17.724Z,19.63
2023-03-04T04:35:45.673Z,19.00
2023-03-04T04:38:13.594Z,19.83
2023-03-04T04:40:43.517Z,21.43
2023-03-04T04:43:11.580Z,23.30
2023-03-04T04:45:39.457Z,19.77
2023-03-04T04:48:09.036Z,20.13
2023-03-04T04:50:37.096Z,22.00
2023-03-04T04:53:05.000Z,25.37
2023-03-04T04:55:33.421Z,24.17
2023-03-04T04:58:02.631Z,23.73
2023-03-04T05:00:30.489Z,28.53
2023-03-04T05:02:58.381Z,26.13
2023-03-04T05:05:26.273Z,23.03
2023-03-04T05:07:54.082Z,23.87
2023-03-04T05:10:21.993Z,26.80
2023-03-04T05:12:49.976Z,29.90
2023-03-04T05:15:19.302Z,25.60
2023-03-04T05:17:47.165Z,22.13
2023-03-04T05:20:15.148Z,24.23
2023-03-04T05:22:42.990Z,22.60
2023-03-04T05:25:11.412Z,25.17
2023-03-04T05:27:39.223Z,23.83
2023-03-04T05:30:08.355Z,26.93
2023-03-04T05:32:37.581Z,26.27
2023-03-04T05:35:06.158Z,32.30
2023-03-04T05:37:34.062Z,43.93
2023-03-04T05:40:01.926Z,95.07
2023-03-04T05:42:29.822Z,78.67
2023-03-04T05:44:57.705Z,79.70
2023-03-04T05:47:25.528Z,86.63
2023-03-04T05:49:54.822Z,79.13
2023-03-04T05:52:22.659Z,63.03
2023-03-04T05:54:50.507Z,59.77
2023-03-04T05:57:18.410Z,44.57
2023-03-04T05:59:46.284Z,70.00
2023-03-04T06:02:14.221Z,70.43
2023-03-04T06:04:42.167Z,62.37
2023-03-04T06:07:11.373Z,65.30
2023-03-04T06:09:39.209Z,72.37
2023-03-04T06:12:07.521Z,61.57
2023-03-04T06:14:35.455Z,41.90
2023-03-04T06:17:03.539Z,55.57
2023-03-04T06:19:31.454Z,44.70
2023-03-04T06:21:59.371Z,43.43
2023-03-04T06:24:29.609Z,51.70
2023-03-04T06:26:57.567Z,55.83
2023-03-04T06:29:25.489Z,60.00
2023-03-04T06:31:53.541Z,56.47
2023-03-04T06:34:21.829Z,55.47
2023-03-04T06:36:49.812Z,50.63
2023-03-04T06:39:17.863Z,50.80
2023-03-04T06:41:47.111Z,44.77
2023-03-04T06:44:14.971Z,42.63
2023-03-04T06:46:42.988Z,33.17
2023-03-04T06:49:10.926Z,27.63
2023-03-04T06:51:38.819Z,31.73
2023-03-04T06:54:06.766Z,32.03
2023-03-04T06:56:34.909Z,32.80
2023-03-04T06:59:04.243Z,31.87
2023-03-04T07:01:32.409Z,31.07
2023-03-04T07:04:00.616Z,28.77
2023-03-04T07:06:29.916Z,24.77
2023-03-04T07:08:58.630Z,23.50
2023-03-04T07:11:29.421Z,23.07
2023-03-04T07:13:57.299Z,22.67
2023-03-04T07:16:26.668Z,20.07
2023-03-04T07:18:55.043Z,20.27
2023-03-04T07:21:22.948Z,20.70
2023-03-04T07:23:50.961Z,18.43
2023-03-04T07:26:19.214Z,18.20
2023-03-04T07:28:47.254Z,19.13
2023-03-04T07:31:22.614Z,19.53
2023-03-04T07:33:53.427Z,18.47
2023-03-04T07:36:21.265Z,19.17
2023-03-04T07:38:50.646Z,19.87
2023-03-04T07:41:19.313Z,19.03
2023-03-04T07:43:47.153Z,21.27
2023-03-04T07:46:15.471Z,21.57
2023-03-04T07:48:43.518Z,21.97
2023-03-04T07:51:14.898Z,22.50
2023-03-04T07:53:46.236Z,18.77
2023-03-04T07:56:16.246Z,19.93
2023-03-04T07:58:44.595Z,21.10
2023-03-04T08:01:14.402Z,21.93
2023-03-04T08:03:42.886Z,21.90
2023-03-04T08:06:13.882Z,26.03
2023-03-04T08:08:43.004Z,30.13
2023-03-04T08:11:12.822Z,31.27
2023-03-04T08:13:41.008Z,36.23
2023-03-04T08:16:09.819Z,32.33
2023-03-04T08:18:39.712Z,29.23
2023-03-04T08:21:10.493Z,27.93
2023-03-04T08:23:41.000Z,32.20
2023-03-04T08:26:10.668Z,28.93
2023-03-04T08:28:39.328Z,29.53
2023-03-04T08:31:07.637Z,28.77
2023-03-04T08:33:35.965Z,28.27
2023-03-04T08:36:03.806Z,28.23
2023-03-04T08:38:32.159Z,30.90
2023-03-04T08:41:03.094Z,29.93
2023-03-04T08:43:31.816Z,30.60
2023-03-04T08:46:00.062Z,33.03
2023-03-04T08:48:28.353Z,29.43
2023-03-04T08:50:56.237Z,30.47
2023-03-04T08:53:24.359Z,29.17
2023-03-04T08:55:52.723Z,28.37
2023-03-04T08:58:22.093Z,26.03
2023-03-04T09:00:51.637Z,26.67
2023-03-04T09:03:20.658Z,19.57
2023-03-04T09:06:00.467Z,22.23
2023-03-04T09:08:28.330Z,20.40
2023-03-04T09:10:56.776Z,18.37
2023-03-04T09:13:27.500Z,16.63
2023-03-04T09:15:55.682Z,22.17
2023-03-04T09:18:25.785Z,24.93
2023-03-04T09:20:54.525Z,23.73
2023-03-04T09:23:23.286Z,23.73
2023-03-04T09:25:51.392Z,20.37
2023-03-04T09:28:20.350Z,20.43
2023-03-04T09:30:49.584Z,20.00
2023-03-04T09:33:17.898Z,19.63
2023-03-04T09:35:46.192Z,18.77
2023-03-04T09:38:14.077Z,18.70
2023-03-04T09:40:45.030Z,20.03
2023-03-04T09:43:20.572Z,22.90
2023-03-04T09:45:54.596Z,19.70
2023-03-04T09:48:26.104Z,20.30
2023-03-04T09:51:06.486Z,19.73
2023-03-04T09:53:42.134Z,21.40
2023-03-04T09:59:05.169Z,19.83
2023-03-04T10:01:41.084Z,19.20
2023-03-04T10:04:18.090Z,17.33
2023-03-04T10:06:54.279Z,17.60
2023-03-04T10:09:26.527Z,16.23
2023-03-04T10:12:03.008Z,20.53
2023-03-04T10:14:41.235Z,17.70
2023-03-04T10:17:17.897Z,17.23
2023-03-04T10:19:55.535Z,24.93
2023-03-04T10:22:30.163Z,17.63
2023-03-04T10:24:59.777Z,16.77
2023-03-04T10:27:30.164Z,19.57
2023-03-04T10:30:01.794Z,18.07
2023-03-04T10:32:31.129Z,20.83
2023-03-04T10:34:59.130Z,24.70
2023-03-04T10:37:46.405Z,18.00
2023-03-04T10:40:22.490Z,20.37
2023-03-04T10:42:51.319Z,22.83
2023-03-04T10:45:24.640Z,19.10
2023-03-04T10:47:58.869Z,19.10
2023-03-04T10:50:29.301Z,18.37
2023-03-04T10:52:58.614Z,18.77
2023-03-04T10:55:30.509Z,21.87
2023-03-04T10:58:04.564Z,19.53
2023-03-04T11:00:34.512Z,16.90
2023-03-04T11:03:29.181Z,17.73
2023-03-04T11:06:18.727Z,17.50
2023-03-04T11:08:55.292Z,18.00
2023-03-04T11:11:34.595Z,18.23
2023-03-04T11:14:15.501Z,17.83
2023-03-04T11:16:54.269Z,16.63
2023-03-04T11:19:27.287Z,17.87
2023-03-04T11:21:56.503Z,18.20
2023-03-04T11:24:29.808Z,18.83
2023-03-04T11:27:04.498Z,23.73
2023-03-04T11:29:39.428Z,16.93
2023-03-04T11:32:12.997Z,19.80
2023-03-04T11:34:48.953Z,18.97
2023-03-04T11:37:23.863Z,16.43
2023-03-04T11:39:55.664Z,17.23
2023-03-04T11:42:33.122Z,16.93
2023-03-04T11:45:01.119Z,20.70
2023-03-04T11:47:43.094Z,17.57
2023-03-04T11:50:28.488Z,18.37
2023-03-04T11:53:21.466Z,18.93
2023-03-04T11:55:57.407Z,28.40
2023-03-04T11:58:48.535Z,17.87
2023-03-04T12:01:21.726Z,19.17
2023-03-04T12:04:07.783Z,16.70
2023-03-04T12:06:47.596Z,20.90
2023-03-04T12:09:38.584Z,20.37
2023-03-04T12:12:29.061Z,17.60
2023-03-04T12:15:10.121Z,21.83
2023-03-04T12:17:56.056Z,23.57
2023-03-04T12:20:36.621Z,19.97
2023-03-04T12:23:25.813Z,20.47
2023-03-04T12:26:01.841Z,26.27
2023-03-04T12:28:43.328Z,20.30
2023-03-04T12:31:40.437Z,22.50
2023-03-04T12:34:32.406Z,22.43
2023-03-04T12:37:14.570Z,18.60
2023-03-04T12:39:54.128Z,18.80
2023-03-04T12:42:31.002Z,21.33
2023-03-04T12:45:10.339Z,24.93
2023-03-04T12:47:52.349Z,25.80
2023-03-04T12:50:43.546Z,19.97
2023-03-04T12:53:22.337Z,23.33
2023-03-04T12:55:53.109Z,21.00
2023-03-04T12:58:25.206Z,19.83
2023-03-04T13:01:04.099Z,20.90
2023-03-04T13:03:43.214Z,26.73
2023-03-04T13:06:25.172Z,23.30
2023-03-04T13:09:02.463Z,19.10
2023-03-04T13:11:44.076Z,20.23
2023-03-04T13:14:26.556Z,20.57
2023-03-04T13:16:55.975Z,21.43
2023-03-04T13:19:53.736Z,22.37
2023-03-04T13:22:35.311Z,23.47
2023-03-04T13:25:36.759Z,24.03
2023-03-04T13:28:25.838Z,22.03
2023-03-04T13:31:14.621Z,20.70
2023-03-04T13:34:10.678Z,23.63
2023-03-04T13:37:00.921Z,22.50
2023-03-04T13:39:36.267Z,23.13
2023-03-04T13:42:06.316Z,22.10
2023-03-04T13:45:03.011Z,22.40
2023-03-04T13:47:51.066Z,22.77
2023-03-04T13:50:40.301Z,22.67
2023-03-04T13:53:44.062Z,24.27
2023-03-04T13:56:23.397Z,22.93
2023-03-04T13:58:54.196Z,24.33
2023-03-04T14:01:30.594Z,22.70
2023-03-04T14:03:59.421Z,25.50
2023-03-04T14:06:28.745Z,25.27
2023-03-04T14:08:57.585Z,25.27
2023-03-04T14:11:29.296Z,23.10
2023-03-04T14:13:59.187Z,26.17
2023-03-04T14:16:30.375Z,22.10
2023-03-04T14:19:03.648Z,22.57
2023-03-04T14:21:32.701Z,22.60
2023-03-04T14:24:06.968Z,49.07
2023-03-04T14:26:35.498Z,22.33
2023-03-04T14:29:04.052Z,24.90
2023-03-04T14:31:37.338Z,25.30
2023-03-04T14:34:05.465Z,19.83
2023-03-04T14:36:35.676Z,19.83
2023-03-04T14:39:07.271Z,22.77
2023-03-04T14:41:36.634Z,21.47
2023-03-04T14:44:10.862Z,22.17
2023-03-04T14:46:49.314Z,21.93
2023-03-04T14:49:25.600Z,26.57
2023-03-04T14:51:54.807Z,24.63
2023-03-04T14:54:29.502Z,23.70
2023-03-04T14:56:58.293Z,24.10
2023-03-04T14:59:31.238Z,22.20
2023-03-04T15:02:31.327Z,23.33
2023-03-04T15:05:01.583Z,20.53
2023-03-04T15:07:35.828Z,21.80
2023-03-04T15:10:07.113Z,23.30
2023-03-04T15:12:38.763Z,24.53
2023-03-04T15:15:47.778Z,22.07
2023-03-04T15:18:26.222Z,20.50
2023-03-04T15:20:58.440Z,23.70
2023-03-04T15:23:26.957Z,22.50
2023-03-04T15:25:57.232Z,20.83
2023-03-04T15:28:26.364Z,22.03
2023-03-04T15:30:56.760Z,22.13
2023-03-04T15:33:28.137Z,23.60
2023-03-04T15:35:59.498Z,21.77
2023-03-04T15:38:28.575Z,22.13
2023-03-04T15:40:58.500Z,25.93
2023-03-04T15:43:27.500Z,24.53
2023-03-04T15:46:06.611Z,19.03
2023-03-04T15:48:36.207Z,19.37
2023-03-04T15:51:05.059Z,22.13
2023-03-04T15:53:38.810Z,23.33
2023-03-04T15:56:12.008Z,26.47
2023-03-04T15:58:40.616Z,27.83
2023-03-04T16:01:10.449Z,28.47
2023-03-04T16:03:39.684Z,25.67
2023-03-04T16:06:11.538Z,25.83
2023-03-04T16:08:43.023Z,25.40
2023-03-04T16:11:16.201Z,24.70
2023-03-04T16:13:44.302Z,24.87
2023-03-04T16:16:12.900Z,23.80
2023-03-04T16:18:43.260Z,49.17
2023-03-04T16:21:16.597Z,26.93
2023-03-04T16:23:46.797Z,24.90
2023-03-04T16:26:23.602Z,24.73
2023-03-04T16:28:52.340Z,25.63
2023-03-04T16:31:21.426Z,27.57
2023-03-04T16:33:50.706Z,24.37
2023-03-04T16:36:23.393Z,25.00
2023-03-04T16:38:52.587Z,25.40
2023-03-04T16:41:28.434Z,27.10
2023-03-04T16:43:57.096Z,27.63
2023-03-04T16:46:25.072Z,26.63
2023-03-04T16:48:55.169Z,31.03
2023-03-04T16:51:24.637Z,36.80
2023-03-04T16:53:56.440Z,39.67
2023-03-04T16:56:24.949Z,38.37
2023-03-04T16:58:54.160Z,36.53
2023-03-04T17:01:24.228Z,41.13
2023-03-04T17:03:52.288Z,42.20
2023-03-04T17:06:22.213Z,35.27
2023-03-04T17:08:50.505Z,39.93
2023-03-04T17:11:21.575Z,34.43
2023-03-04T17:13:51.459Z,46.23
2023-03-04T17:16:28.836Z,34.50
2023-03-04T17:18:59.768Z,40.73
2023-03-04T17:21:30.282Z,32.70
2023-03-04T17:23:58.191Z,35.77
2023-03-04T17:26:27.704Z,38.20
2023-03-04T17:28:56.831Z,30.87
2023-03-04T17:31:27.867Z,36.53
2023-03-04T17:33:56.545Z,38.70
2023-03-04T17:36:31.219Z,32.40
2023-03-04T17:39:05.274Z,30.60
2023-03-04T17:41:35.979Z,39.83
2023-03-04T17:44:05.886Z,42.43
2023-03-04T17:46:37.043Z,44.87
2023-03-04T17:49:09.673Z,46.90
2023-03-04T17:51:42.549Z,50.83
2023-03-04T17:54:14.103Z,67.77
2023-03-04T17:56:44.590Z,55.97
2023-03-04T17:59:15.112Z,49.47
2023-03-04T18:01:45.156Z,48.63
2023-03-04T18:04:14.297Z,52.77
2023-03-04T18:06:42.834Z,52.80
2023-03-04T18:09:12.310Z,51.20
2023-03-04T18:11:41.785Z,49.57
2023-03-04T18:14:12.184Z,57.43
2023-03-04T18:16:40.795Z,58.20
2023-03-04T18:19:09.533Z,59.30
2023-03-04T18:21:39.027Z,49.13
2023-03-04T18:24:07.517Z,51.57
2023-03-04T18:26:37.059Z,57.30
2023-03-04T18:29:05.315Z,46.27
2023-03-04T18:31:34.705Z,55.73
2023-03-04T18:34:03.887Z,54.57
2023-03-04T18:36:31.875Z,68.63
2023-03-04T18:39:00.361Z,59.80
2023-03-04T18:41:28.559Z,61.77
2023-03-04T18:43:59.242Z,71.70
2023-03-04T18:46:35.283Z,68.77
2023-03-04T18:49:06.341Z,59.93
2023-03-04T18:51:34.497Z,47.70
2023-03-04T18:54:02.691Z,39.70
2023-03-04T18:56:38.179Z,46.53
2023-03-04T18:59:13.796Z,36.00
2023-03-04T19:01:42.007Z,38.50
2023-03-04T19:04:10.188Z,44.07
2023-03-04T19:06:38.154Z,48.17
2023-03-04T19:09:06.691Z,52.10
2023-03-04T19:11:34.585Z,45.70
2023-03-04T19:14:03.481Z,47.53
2023-03-04T19:16:32.932Z,38.87
2023-03-04T19:19:00.974Z,45.47
2023-03-04T19:21:29.373Z,54.13
2023-03-04T19:23:57.473Z,72.40
2023-03-04T19:26:26.422Z,74.00
2023-03-04T19:28:55.643Z,58.87
2023-03-04T19:31:24.791Z,50.00
2023-03-04T19:33:56.755Z,48.23
2023-03-04T19:36:27.201Z,57.43
2023-03-04T19:38:56.280Z,55.93
2023-03-04T19:41:24.718Z,60.73
2023-03-04T19:43:52.550Z,49.80
2023-03-04T19:46:21.574Z,54.07
2023-03-04T19:48:50.372Z,49.67
2023-03-04T19:51:22.031Z,57.60
2023-03-04T19:53:51.474Z,55.60
2023-03-04T19:56:20.350Z,58.47
2023-03-04T19:58:48.969Z,72.63
2023-03-04T20:01:21.861Z,69.20
2023-03-04T20:03:49.826Z,77.27
2023-03-04T20:06:19.070Z,66.07
2023-03-04T20:08:47.010Z,62.23
2023-03-04T20:11:14.979Z,60.73
2023-03-04T20:13:43.217Z,45.93
2023-03-04T20:16:17.020Z,40.83
2023-03-04T20:18:47.654Z,36.43
2023-03-04T20:21:15.770Z,32.80
2023-03-04T20:23:45.014Z,29.00
2023-03-04T20:26:12.929Z,30.10
2023-03-04T20:28:41.060Z,26.30
2023-03-04T20:31:15.560Z,23.70
2023-03-04T20:33:45.548Z,25.43
2023-03-04T20:36:15.196Z,24.57
2023-03-04T20:38:45.271Z,24.90
2023-03-04T20:41:14.294Z,22.30
2023-03-04T20:43:42.544Z,26.67
2023-03-04T20:46:28.973Z,26.37
2023-03-04T20:48:58.563Z,21.73
2023-03-04T20:51:27.141Z,31.33
2023-03-04T20:53:56.664Z,29.20
2023-03-04T20:56:25.795Z,30.27
2023-03-04T20:58:55.219Z,26.93
2023-03-04T21:01:24.632Z,26.67
2023-03-04T21:03:53.282Z,24.97
2023-03-04T21:06:21.894Z,25.50
2023-03-04T21:08:50.161Z,23.43
2023-03-04T21:11:19.701Z,24.10
2023-03-04T21:13:55.964Z,24.27
2023-03-04T21:16:26.307Z,27.20
2023-03-04T21:18:54.734Z,25.37
2023-03-04T21:21:24.563Z,24.30
2023-03-04T21:23:54.640Z,25.10
2023-03-04T21:26:25.030Z,25.63
2023-03-04T21:28:54.586Z,25.20
2023-03-04T21:31:25.413Z,27.67
2023-03-04T21:33:54.596Z,25.30
2023-03-04T21:36:23.247Z,23.27
2023-03-04T21:38:51.350Z,23.97
2023-03-04T21:41:21.713Z,28.77
2023-03-04T21:43:52.230Z,24.13
2023-03-04T21:46:20.156Z,24.73
2023-03-04T21:48:48.512Z,24.70
2023-03-04T21:51:17.901Z,24.03
2023-03-04T21:53:45.843Z,26.17
2023-03-04T21:56:15.612Z,25.23
2023-03-04T21:58:45.822Z,25.30
2023-03-04T22:01:17.040Z,22.43
2023-03-04T22:03:45.199Z,22.43
2023-03-04T22:06:14.365Z,25.27
2023-03-04T22:08:42.890Z,24.97
2023-03-04T22:11:13.328Z,24.57
2023-03-04T22:13:41.810Z,24.17
2023-03-04T22:16:11.336Z,25.07
2023-03-04T22:18:41.173Z,22.13
2023-03-04T22:21:10.998Z,22.90
2023-03-04T22:23:41.391Z,25.50
2023-03-04T22:26:12.334Z,26.73
2023-03-04T22:28:40.486Z,24.47
2023-03-04T22:31:15.672Z,23.73
2023-03-04T22:33:45.656Z,23.10
2023-03-04T22:36:14.577Z,24.57
2023-03-04T22:38:44.575Z,24.10
2023-03-04T22:41:17.098Z,24.30
2023-03-04T22:43:45.778Z,22.73
2023-03-04T22:46:15.271Z,21.17
2023-03-04T22:48:44.729Z,25.67
2023-03-04T22:51:13.007Z,22.50
2023-03-04T22:53:41.126Z,25.83
2023-03-04T22:56:09.219Z,23.83
2023-03-04T22:58:37.566Z,23.80
2023-03-04T23:01:06.334Z,21.07
2023-03-04T23:03:34.550Z,23.67
2023-03-04T23:06:07.352Z,24.00
2023-03-04T23:08:35.763Z,23.37
2023-03-04T23:11:03.689Z,25.90
2023-03-04T23:13:33.681Z,25.40
2023-03-04T23:16:02.863Z,22.63
2023-03-04T23:18:31.825Z,22.93
2023-03-04T23:20:59.827Z,21.87
2023-03-04T23:23:29.073Z,23.83
2023-03-04T23:25:56.924Z,22.63
2023-03-04T23:28:24.851Z,24.47
2023-03-04T23:30:52.838Z,27.00
2023-03-04T23:33:21.088Z,23.13
2023-03-04T23:35:49.028Z,24.07
2023-03-04T23:38:16.918Z,24.70
2023-03-04T23:40:46.220Z,23.33
2023-03-04T23:43:14.069Z,25.43
2023-03-04T23:45:42.010Z,25.50
2023-03-04T23:48:09.878Z,24.07
2023-03-04T23:50:38.225Z,25.37
2023-03-04T23:53:06.241Z,27.47
2023-03-04T23:55:34.433Z,22.50
2023-03-04T23:58:03.632Z,27.43
